Current Weather

Bangoka Intl

Bangoka Intl, Congo (Kinshasa) (FZIC)

Report from: Saturday, February 24, 2024 1:00 PM UTC
Current time: Sunday, February 25, 2024 1:36 AM UTC

Nearby weather – Weather history – Daily summaries
Weather forecast

Temperature31.0°C (87.8°F)
Heat index36.6°C (97.8°F)
Dew point24.0°C (75.2°F)
Winds 4 kts (2.1 m/s, 4.6 mph) West (270°)
Visibility5 mi. (8 km)
Clouds Ceiling: Broken clouds 3,000 ft. (914 m)
Few clouds with towering cumulus 3,400 ft. (1,036 m)
Altimeter29.80 in.Hg (1009 mB)
Relative humidity66 %
Density altitude2,372 ft. (723 m)
Remarks No significant changes expected in the next two hours
Flight conditions Marginal Visual Meteorological Conditions
Raw dataFZIC 241300Z 27004KT 8000 BKN030 FEW034TCU 31/24 Q1009 NOSIG
An error has occurred. This application may no longer respond until reloaded. Reload 🗙